Huvudsida
METAR-TAF:

METAR-TAF

Flygplatser :

El Alto International Airport

La Paz, Bolivia

latitud: 16-31S, longitud: 068-11W, höjd: 4058 m

Aktuellt väderrapport

Denna rapport gjordes för 59 minuter sedan, klockan 20:00 UTC
Vind 12 kt från ost, varierande mellan ost/nordost och sydost
Temperatur
Tryck 1038 hPa
Sikt 10 km eller mer
Få moln på en höjd av 2500 ft
Få moln på en höjd av 2700 ft, Cumulonimbus.

METAR: SLLP 112000Z 10012KT 060V130 9999 FEW025 FEW027CB SCT20019/M05 Q1038

Tid: 16:59 (20:59 UTC)

Väderprognos

Denna rapport gjordes för 4 timmar och 9 minuter sedan, klockan 16:50 UTC
Prognos gäller från 11 kl. 18 UTC till 12 kl. 18 UTC
Vind 12 kt från nordost i byarna ända upp till 22 kt
Sikt 10 km eller mer
Få moln på en höjd av 2500 ft
Få moln på en höjd av 2700 ft, Cumulonimbus.
Blir
från 12 kl. 02 UTC till 12 kl. 04 UTC
Vind 5 kt från ost
Få moln på en höjd av 1000 ft

TAF: SLLP 111650Z 1118/1218 05012G22KT 9999 FEW025 FEW027CB TX21/1120Z TN03/1210Z BECMG 1202/1204 10005KT FEW010

Aktuella väderrapporter och prognoser från 4000 flygplatser (METAR- och TAF-rapporter).

De tillgängliga stationerna syns som gula och röda prickar på kartan.

För musen över prickarna för att se namnen på stationerna.

Klicka sedan för att få väderrapporter och prognoser.

För att ändra kartan: Klicka på de gröna knapparna med ett svart kors på för att zooma in; den gröna knappen med ett streck på för att zooma ut; eller på de gröna pilarna för angränsande kartor.


METAR-TAF: